Time;durP1;ratioP1;P1;durP2;ratioP2;P2;SDS_P1;SDS_P2;PMS_P1;PMS_P2;Temp;Humidity;BMP_temperature;BMP_pressure;BME280_temperature;BME280_humidity;BME280_pressure;Samples;Min_cycle;Max_cycle;Signal;HPM_P1;HPM_P2
2022/07/18 00:00:55;;;;;;;5.63;4.03;;;;;;;15.65;78.61;102383.66;2087842;28;26101;-68
2022/07/18 00:02:02;;;;;;;6.68;3.80;;;;;;;15.62;78.20;102388.25;2088272;28;22156;-68
2022/07/18 00:03:05;;;;;;;5.70;4.00;;;;;;;15.60;78.32;102384.69;2088186;28;20038;-68
2022/07/18 00:04:07;;;;;;;6.38;3.88;;;;;;;15.59;78.22;102389.19;2087808;28;36933;-68
2022/07/18 00:05:10;;;;;;;6.25;3.90;;;;;;;15.57;78.03;102387.44;2088777;28;23655;-68
2022/07/18 00:06:12;;;;;;;4.65;3.42;;;;;;;15.54;77.99;102388.41;2088412;28;22460;-68
2022/07/18 00:07:14;;;;;;;5.78;3.55;;;;;;;15.53;77.86;102385.75;2088185;28;26365;-68
2022/07/18 00:08:15;;;;;;;5.03;3.88;;;;;;;15.52;77.60;102384.84;2087744;28;20089;-68
2022/07/18 00:09:22;;;;;;;5.30;2.97;;;;;;;15.54;77.45;102384.81;2088790;28;20053;-68
2022/07/18 00:10:24;;;;;;;8.70;3.55;;;;;;;15.52;77.06;102390.22;2087920;28;26254;-68
2022/07/18 00:11:28;;;;;;;5.03;3.35;;;;;;;15.50;77.12;102389.38;2088579;28;20995;-67
2022/07/18 00:12:29;;;;;;;8.10;3.30;;;;;;;15.47;77.06;102392.16;2087793;28;32370;-68
2022/07/18 00:13:31;;;;;;;4.85;2.97;;;;;;;15.44;77.57;102393.09;2088177;28;36013;-68
2022/07/18 00:14:34;;;;;;;5.80;3.13;;;;;;;15.42;77.42;102394.94;2087981;28;34269;-68
2022/07/18 00:15:37;;;;;;;5.07;3.47;;;;;;;15.40;77.44;102391.38;2088088;28;21664;-67
2022/07/18 00:16:42;;;;;;;3.97;3.13;;;;;;;15.36;77.72;102386.97;2087610;28;26555;-68
2022/07/18 00:17:43;;;;;;;4.93;3.17;;;;;;;15.35;77.59;102387.00;2087891;28;27388;-68
2022/07/18 00:18:45;;;;;;;6.10;3.50;;;;;;;15.34;78.27;102388.78;2087137;28;23604;-68
2022/07/18 00:19:47;;;;;;;7.10;3.30;;;;;;;15.31;77.74;102387.97;2088543;28;25174;-68
2022/07/18 00:20:50;;;;;;;4.68;2.95;;;;;;;15.29;77.60;102390.72;2088734;28;20068;-68
2022/07/18 00:21:52;;;;;;;4.32;2.83;;;;;;;15.26;77.79;102385.38;2088163;28;32997;-68
2022/07/18 00:22:54;;;;;;;6.38;3.15;;;;;;;15.26;77.77;102386.25;2088577;28;20964;-68
2022/07/18 00:23:56;;;;;;;4.93;3.10;;;;;;;15.27;77.69;102390.75;2088731;28;22066;-68
2022/07/18 00:24:58;;;;;;;5.72;2.70;;;;;;;15.24;77.16;102388.09;2088436;28;23970;-68
2022/07/18 00:26:00;;;;;;;4.03;2.97;;;;;;;15.21;77.05;102389.97;2095607;28;29814;-68
2022/07/18 00:27:02;;;;;;;4.15;2.88;;;;;;;15.16;77.33;102392.72;2095878;28;24128;-68
2022/07/18 00:28:04;;;;;;;5.05;2.65;;;;;;;15.14;77.43;102389.19;2088668;28;20152;-69
2022/07/18 00:29:05;;;;;;;5.45;2.70;;;;;;;15.13;77.86;102394.59;2088397;28;21235;-68
2022/07/18 00:30:08;;;;;;;6.18;2.90;;;;;;;15.11;77.87;102389.25;2087831;28;26842;-68
2022/07/18 00:31:11;;;;;;;4.75;2.95;;;;;;;15.07;78.01;102380.34;2087589;28;20221;-68
2022/07/18 00:32:13;;;;;;;5.57;3.20;;;;;;;15.06;78.00;102385.75;2088174;28;26007;-68
2022/07/18 00:33:15;;;;;;;4.85;2.58;;;;;;;15.03;77.95;102380.41;2088310;28;20163;-68
2022/07/18 00:34:17;;;;;;;4.97;2.60;;;;;;;15.01;77.82;102382.25;2088427;28;26583;-68
2022/07/18 00:35:19;;;;;;;4.18;2.60;;;;;;;14.98;77.78;102393.06;2087830;28;27374;-68
2022/07/18 00:36:21;;;;;;;3.25;2.13;;;;;;;14.96;78.11;102387.72;2088625;28;20299;-68
2022/07/18 00:37:23;;;;;;;3.20;2.90;;;;;;;14.91;78.15;102388.72;2087920;28;28397;-68
2022/07/18 00:38:27;;;;;;;3.58;2.90;;;;;;;14.86;78.40;102394.22;2088700;28;20034;-68
2022/07/18 00:39:31;;;;;;;4.47;3.00;;;;;;;14.82;78.52;102398.75;2088067;28;22764;-68
2022/07/18 00:40:32;;;;;;;4.90;2.80;;;;;;;14.79;78.67;102395.22;2088465;28;20138;-69
2022/07/18 00:41:34;;;;;;;5.43;2.85;;;;;;;14.76;78.85;102398.84;2087689;28;35386;-67
2022/07/18 00:42:36;;;;;;;3.03;2.70;;;;;;;14.72;78.88;102399.81;2088156;28;38053;-68
2022/07/18 00:43:40;;;;;;;4.97;2.65;;;;;;;14.68;79.09;102400.81;2087605;28;21095;-68
2022/07/18 00:44:44;;;;;;;3.85;2.45;;;;;;;14.65;79.22;102398.16;2086929;28;21901;-68
2022/07/18 00:45:49;;;;;;;4.63;2.78;;;;;;;14.63;79.16;102399.97;2088258;28;24060;-68
2022/07/18 00:46:57;;;;;;;3.63;2.45;;;;;;;14.62;78.99;102400.88;2088403;28;20127;-68
2022/07/18 00:48:06;;;;;;;4.47;2.80;;;;;;;14.60;79.00;102400.91;2088007;28;20049;-68
2022/07/18 00:49:08;;;;;;;3.10;2.00;;;;;;;14.61;79.27;102401.81;2088033;28;20042;-68
2022/07/18 00:50:11;;;;;;;5.40;2.60;;;;;;;14.59;79.05;102392.84;2088120;28;22045;-68
2022/07/18 00:51:16;;;;;;;4.88;3.00;;;;;;;14.56;78.81;102398.28;2088129;28;26040;-68
2022/07/18 00:52:21;;;;;;;4.30;3.05;;;;;;;14.54;78.94;102394.72;2088807;28;20890;-68
2022/07/18 00:53:24;;;;;;;5.63;2.67;;;;;;;14.55;79.05;102391.09;2088177;28;23244;-68
2022/07/18 00:54:26;;;;;;;5.47;2.95;;;;;;;14.57;79.27;102395.56;2088380;28;27039;-68
2022/07/18 00:55:31;;;;;;;4.38;3.10;;;;;;;14.58;79.00;102393.78;2088065;28;25802;-68
2022/07/18 00:56:33;;;;;;;5.38;2.88;;;;;;;14.60;78.61;102386.53;2087534;28;21084;-68
2022/07/18 00:57:36;;;;;;;4.00;2.75;;;;;;;14.58;78.98;102380.28;2087931;28;20045;-68
2022/07/18 00:58:38;;;;;;;4.55;2.85;;;;;;;14.61;79.16;102385.66;2087764;28;33792;-68
2022/07/18 01:02:22;;;;;;;3.42;2.80;;;;;;;14.62;78.65;102380.19;2088408;28;20838;-68
2022/07/18 01:03:24;;;;;;;4.93;2.70;;;;;;;14.64;78.62;102370.31;2088453;28;21870;-68
2022/07/18 01:04:26;;;;;;;4.70;2.45;;;;;;;14.66;78.74;102371.16;2087932;28;20858;-68
2022/07/18 01:05:29;;;;;;;4.80;3.08;;;;;;;14.67;78.34;102377.44;2088134;28;30241;-67
2022/07/18 01:06:31;;;;;;;4.28;2.75;;;;;;;14.66;78.03;102378.34;2094677;28;20187;-68
2022/07/18 01:07:37;;;;;;;8.30;2.95;;;;;;;14.66;78.11;102378.34;2095205;28;34263;-68
2022/07/18 01:08:42;;;;;;;5.88;3.22;;;;;;;14.65;78.23;102381.97;2088359;28;21632;-67
2022/07/18 01:09:44;;;;;;;4.88;3.05;;;;;;;14.64;77.99;102373.00;2088332;28;20791;-67
2022/07/18 01:10:46;;;;;;;5.55;3.05;;;;;;;14.63;78.20;102373.91;2088163;28;24515;-67
2022/07/18 01:11:48;;;;;;;4.03;3.00;;;;;;;14.62;78.72;102380.19;2088812;28;20974;-67
2022/07/18 01:12:50;;;;;;;4.65;2.72;;;;;;;14.59;78.64;102380.28;2088108;28;21395;-67
2022/07/18 01:13:52;;;;;;;5.75;2.63;;;;;;;14.55;78.65;102381.19;2088285;28;27256;-67
2022/07/18 01:14:56;;;;;;;6.30;3.25;;;;;;;14.52;78.75;102382.13;2087655;28;20843;-68
2022/07/18 01:16:00;;;;;;;5.75;3.53;;;;;;;14.52;78.72;102382.13;2087451;28;27250;-68
2022/07/18 01:17:10;;;;;;;5.22;2.92;;;;;;;14.49;78.89;102381.28;2087517;28;36041;-69
2022/07/18 01:18:12;;;;;;;4.55;2.90;;;;;;;14.43;78.91;102378.72;2087384;28;36512;-67
2022/07/18 01:19:14;;;;;;;4.38;2.60;;;;;;;14.41;79.07;102394.91;2085655;28;39559;-67
2022/07/18 01:20:16;;;;;;;6.05;2.67;;;;;;;14.40;78.97;102379.63;2087843;28;20885;-68
2022/07/18 01:21:18;;;;;;;3.22;2.63;;;;;;;14.37;79.01;102382.38;2087852;28;28442;-67
2022/07/18 01:22:20;;;;;;;6.00;2.75;;;;;;;14.36;79.12;102386.00;2087478;28;20111;-67
2022/07/18 01:23:22;;;;;;;4.65;2.70;;;;;;;14.32;79.23;102382.47;2087240;28;34526;-68
2022/07/18 01:24:24;;;;;;;6.97;2.80;;;;;;;14.32;79.35;102373.50;2087604;28;24722;-68
2022/07/18 01:25:27;;;;;;;5.35;2.85;;;;;;;14.33;79.97;102369.88;2087909;28;20045;-68
2022/07/18 01:26:28;;;;;;;5.22;2.88;;;;;;;14.37;80.15;102365.31;2087820;28;33625;-69
2022/07/18 01:27:30;;;;;;;6.10;3.17;;;;;;;14.38;80.04;102370.69;2087845;28;24224;-67
2022/07/18 01:28:33;;;;;;;6.15;2.90;;;;;;;14.38;80.13;102367.13;2088131;28;25962;-69
2022/07/18 01:29:35;;;;;;;5.90;3.10;;;;;;;14.38;79.55;102368.00;2087928;28;24247;-69
2022/07/18 01:30:39;;;;;;;4.47;2.53;;;;;;;14.36;79.66;102364.44;2087898;28;35889;-68
2022/07/18 01:31:42;;;;;;;4.72;2.95;;;;;;;14.38;79.40;102377.91;2088411;28;20041;-68
2022/07/18 01:32:43;;;;;;;5.13;2.78;;;;;;;14.35;79.51;102373.44;2087440;28;23775;-68
2022/07/18 01:33:45;;;;;;;3.90;2.88;;;;;;;14.33;79.10;102377.94;2086356;28;20030;-68
2022/07/18 01:34:50;;;;;;;4.25;2.63;;;;;;;14.30;79.52;102381.59;2087566;28;38604;-69
2022/07/18 01:35:52;;;;;;;3.35;2.65;;;;;;;14.33;79.90;102375.25;2087702;28;28286;-68
2022/07/18 01:36:54;;;;;;;4.55;2.50;;;;;;;14.32;79.65;102376.19;2087909;28;20527;-69
2022/07/18 01:37:59;;;;;;;4.22;2.45;;;;;;;14.29;79.45;102379.81;2087940;28;22191;-69
2022/07/18 01:39:03;;;;;;;4.82;2.72;;;;;;;14.30;79.50;102361.81;2088557;28;20033;-68
2022/07/18 01:40:11;;;;;;;5.30;2.90;;;;;;;14.34;79.66;102366.28;2087549;28;31479;-68
2022/07/18 01:41:14;;;;;;;6.05;2.95;;;;;;;14.32;79.41;102369.00;2087712;28;29444;-68
2022/07/18 01:42:16;;;;;;;6.13;2.78;;;;;;;14.29;79.49;102362.75;2087989;28;23042;-68
2022/07/18 01:43:18;;;;;;;5.82;2.97;;;;;;;14.31;79.50;102374.41;2087714;28;30291;-67
2022/07/18 01:44:19;;;;;;;4.03;2.60;;;;;;;14.25;79.32;102358.34;2088814;28;22686;-68
2022/07/18 01:45:21;;;;;;;5.88;2.90;;;;;;;14.25;79.60;102366.41;2089174;28;36946;-68
2022/07/18 01:46:23;;;;;;;4.18;2.75;;;;;;;14.21;79.56;102365.56;2089147;28;35733;-68
2022/07/18 01:47:25;;;;;;;3.65;2.40;;;;;;;14.18;79.62;102368.31;2089277;28;20899;-68
2022/07/18 01:48:29;;;;;;;5.25;2.75;;;;;;;14.16;79.57;102366.53;2088726;28;21607;-68
2022/07/18 01:49:32;;;;;;;3.78;2.42;;;;;;;14.11;79.26;102364.81;2088915;28;22322;-68
2022/07/18 01:50:33;;;;;;;3.58;2.63;;;;;;;14.11;79.74;102366.63;2088726;28;26048;-68
2022/07/18 01:51:35;;;;;;;5.25;2.47;;;;;;;14.10;80.14;102362.13;2088413;28;26380;-68
2022/07/18 01:52:38;;;;;;;4.80;3.25;;;;;;;14.09;79.69;102368.44;2089129;28;31208;-67
2022/07/18 01:53:42;;;;;;;4.72;2.55;;;;;;;14.07;80.01;102368.47;2089210;28;22305;-68
2022/07/18 01:54:44;;;;;;;5.47;2.97;;;;;;;14.09;79.78;102369.34;2088891;28;34946;-67
2022/07/18 01:55:48;;;;;;;3.63;2.35;;;;;;;14.08;79.78;102367.53;2080495;28;27232;-68
2022/07/18 01:56:50;;;;;;;4.43;2.72;;;;;;;14.08;80.00;102362.16;2080910;28;21979;-67
2022/07/18 01:57:52;;;;;;;5.90;2.58;;;;;;;14.07;79.73;102363.09;2089108;28;27528;-68
2022/07/18 01:58:54;;;;;;;4.45;2.60;;;;;;;14.09;80.20;102357.69;2089464;28;20152;-68
2022/07/18 01:59:56;;;;;;;5.13;2.90;;;;;;;14.08;79.86;102356.75;2088377;28;24159;-68
2022/07/18 02:00:58;;;;;;;4.10;2.95;;;;;;;14.11;79.60;102359.41;2088814;28;27656;-68
2022/07/18 02:02:00;;;;;;;5.63;2.85;;;;;;;14.11;79.99;102364.81;2089166;28;28474;-68
2022/07/18 02:03:06;;;;;;;6.82;3.03;;;;;;;14.09;79.66;102361.25;2089098;28;20083;-68
2022/07/18 02:04:08;;;;;;;4.75;2.40;;;;;;;14.10;79.96;102360.34;2088746;28;20048;-68
2022/07/18 02:05:10;;;;;;;5.00;2.75;;;;;;;14.09;79.92;102366.63;2089372;28;20381;-68
2022/07/18 02:06:12;;;;;;;3.17;2.38;;;;;;;14.08;79.54;102364.84;2088851;28;36657;-68
2022/07/18 02:07:15;;;;;;;6.03;2.85;;;;;;;14.06;79.92;102365.78;2088978;28;27642;-68
2022/07/18 02:08:17;;;;;;;7.38;3.22;;;;;;;14.08;79.93;102362.16;2088315;28;27599;-68
2022/07/18 02:09:19;;;;;;;5.35;2.67;;;;;;;14.10;79.57;102363.03;2088676;28;21863;-68
2022/07/18 02:10:21;;;;;;;3.35;2.42;;;;;;;14.08;80.04;102366.66;2089867;28;20104;-68
2022/07/18 02:11:23;;;;;;;4.57;2.33;;;;;;;14.04;79.94;102365.81;2088586;28;40143;-69
2022/07/18 02:12:25;;;;;;;4.85;2.75;;;;;;;14.02;79.73;102361.38;2088857;28;20085;-68
2022/07/18 02:13:27;;;;;;;4.88;2.80;;;;;;;14.00;80.46;102369.47;2088824;28;21508;-68
2022/07/18 02:14:30;;;;;;;6.05;2.85;;;;;;;14.00;80.10;102373.94;2089140;28;27251;-67
2022/07/18 02:15:32;;;;;;;5.32;2.55;;;;;;;13.96;80.26;102373.09;2089238;28;27030;-70
2022/07/18 02:16:35;;;;;;;5.75;2.83;;;;;;;13.94;80.37;102373.16;2089636;28;24096;-69
2022/07/18 02:17:42;;;;;;;7.13;3.05;;;;;;;13.93;80.36;102371.34;2088377;28;30028;-69
2022/07/18 02:18:44;;;;;;;5.45;2.53;;;;;;;13.91;80.34;102372.28;2088500;28;20037;-69
2022/07/18 02:19:48;;;;;;;5.35;2.55;;;;;;;13.89;80.53;102374.09;2089188;28;21154;-69
2022/07/18 02:20:50;;;;;;;3.90;2.55;;;;;;;13.84;80.11;102370.59;2088257;28;20872;-69
2022/07/18 02:21:54;;;;;;;3.85;2.38;;;;;;;13.82;80.66;102370.63;2080563;28;28347;-69
2022/07/18 02:22:56;;;;;;;6.15;2.15;;;;;;;13.80;81.00;102369.75;2088354;28;23766;-69
2022/07/18 02:23:57;;;;;;;4.63;2.65;;;;;;;13.81;80.61;102366.13;2096668;28;28203;-70
2022/07/18 02:24:59;;;;;;;4.25;2.50;;;;;;;13.78;81.04;102371.53;2089219;28;26853;-69
2022/07/18 02:26:04;;;;;;;4.15;2.60;;;;;;;13.81;81.43;102359.88;2089446;28;20909;-69
2022/07/18 02:27:06;;;;;;;3.05;2.40;;;;;;;13.81;80.82;102358.06;2089179;28;20041;-69
2022/07/18 02:28:07;;;;;;;3.90;2.60;;;;;;;13.82;80.81;102348.16;2089336;28;21929;-70
2022/07/18 02:29:09;;;;;;;3.55;2.60;;;;;;;13.81;81.10;102351.78;2088851;28;30745;-68
2022/07/18 02:30:14;;;;;;;6.03;2.42;;;;;;;13.80;81.11;102350.91;2089244;28;25849;-69
2022/07/18 02:31:15;;;;;;;3.70;2.20;;;;;;;13.80;81.15;102352.69;2089070;28;20038;-69
2022/07/18 02:32:18;;;;;;;4.72;2.33;;;;;;;13.75;81.21;102342.88;2088973;28;22570;-69
2022/07/18 02:33:20;;;;;;;4.55;2.15;;;;;;;13.74;80.73;102351.84;2088309;28;21033;-69
2022/07/18 02:34:22;;;;;;;4.13;2.35;;;;;;;13.71;81.24;102348.31;2088075;28;26446;-68
2022/07/18 02:35:24;;;;;;;3.67;2.58;;;;;;;13.69;81.15;102347.44;2088609;28;30185;-69
2022/07/18 02:36:27;;;;;;;5.97;2.63;;;;;;;13.68;81.67;102341.19;2079450;28;36309;-69
2022/07/18 02:37:29;;;;;;;4.57;2.13;;;;;;;13.71;81.37;102338.47;2088814;28;25812;-69
2022/07/18 02:38:31;;;;;;;4.32;2.30;;;;;;;13.71;80.95;102343.84;2089181;28;20076;-69
2022/07/18 02:39:33;;;;;;;3.80;2.20;;;;;;;13.69;80.67;102340.28;2089325;28;20914;-69
2022/07/18 02:40:35;;;;;;;5.07;2.40;;;;;;;13.70;81.30;102336.66;2089570;28;22568;-69
2022/07/18 02:41:37;;;;;;;2.33;1.88;;;;;;;13.67;81.47;102342.09;2088233;28;27819;-69
2022/07/18 02:42:39;;;;;;;4.78;2.70;;;;;;;13.66;81.69;102339.44;2088529;28;25993;-69
2022/07/18 02:43:44;;;;;;;5.07;2.58;;;;;;;13.63;80.85;102345.72;2089401;28;20898;-69
2022/07/18 02:44:46;;;;;;;3.33;2.17;;;;;;;13.60;81.55;102345.75;2088316;28;33677;-69
2022/07/18 02:45:48;;;;;;;5.13;2.35;;;;;;;13.58;81.30;102352.97;2089166;28;20473;-69
2022/07/18 02:46:51;;;;;;;2.97;1.90;;;;;;;13.55;82.00;102350.34;2088756;28;37391;-69
2022/07/18 02:47:53;;;;;;;6.07;2.80;;;;;;;13.53;82.19;102346.75;2089167;28;20081;-69
2022/07/18 02:48:55;;;;;;;6.18;3.08;;;;;;;13.55;82.00;102347.66;2088930;28;21337;-69
2022/07/18 02:49:57;;;;;;;6.75;2.45;;;;;;;13.56;82.22;102342.22;2088814;28;29649;-69
2022/07/18 02:50:59;;;;;;;4.40;2.55;;;;;;;13.60;82.26;102343.06;2088566;28;34059;-69
2022/07/18 02:52:06;;;;;;;4.30;2.53;;;;;;;13.63;82.49;102340.34;2088376;28;26961;-69
2022/07/18 02:53:10;;;;;;;3.45;2.50;;;;;;;13.60;82.12;102345.75;2088895;28;20115;-69
2022/07/18 02:54:11;;;;;;;4.35;2.67;;;;;;;13.61;82.01;102338.59;2088467;28;24077;-69
2022/07/18 02:55:17;;;;;;;4.18;2.20;;;;;;;13.61;81.90;102339.47;2088502;28;36786;-69
2022/07/18 02:56:19;;;;;;;3.33;2.45;;;;;;;13.65;81.78;102343.03;2088393;28;24319;-69
2022/07/18 02:57:23;;;;;;;3.60;2.15;;;;;;;13.65;82.02;102343.91;2088278;28;38242;-69
2022/07/18 02:58:27;;;;;;;5.43;2.78;;;;;;;13.69;81.82;102334.91;2096682;28;20087;-69
2022/07/18 02:59:29;;;;;;;3.17;2.55;;;;;;;13.68;81.51;102333.09;2096312;28;20107;-67
2022/07/18 03:00:31;;;;;;;4.95;2.72;;;;;;;13.69;81.65;102337.59;2088576;28;20038;-68
2022/07/18 03:01:33;;;;;;;3.60;2.72;;;;;;;13.68;81.76;102343.00;2087997;28;30730;-68
2022/07/18 03:02:36;;;;;;;4.47;2.67;;;;;;;13.68;82.08;102341.19;2089198;28;20045;-68
2022/07/18 03:03:40;;;;;;;5.85;2.50;;;;;;;13.66;81.83;102340.31;2089178;28;20095;-69
2022/07/18 03:04:42;;;;;;;3.33;2.40;;;;;;;13.64;81.46;102335.84;2088767;28;22926;-68
2022/07/18 03:05:44;;;;;;;3.10;2.63;;;;;;;13.67;82.26;102334.00;2088955;28;21587;-68
2022/07/18 03:06:49;;;;;;;8.52;2.70;;;;;;;13.71;82.24;102334.84;2088655;28;25700;-68
2022/07/18 03:07:51;;;;;;;4.57;2.50;;;;;;;13.69;82.30;102329.53;2088395;28;20102;-68
2022/07/18 03:08:53;;;;;;;3.70;2.40;;;;;;;13.74;81.84;102332.13;2087857;28;31307;-69
2022/07/18 03:09:55;;;;;;;4.85;2.60;;;;;;;13.76;81.57;102330.31;2096588;28;20040;-68
2022/07/18 03:10:57;;;;;;;3.15;2.47;;;;;;;13.74;81.50;102332.13;2088731;28;26192;-68
2022/07/18 03:11:59;;;;;;;4.93;2.42;;;;;;;13.72;81.72;102333.97;2088125;28;28345;-68
2022/07/18 03:13:00;;;;;;;4.85;2.53;;;;;;;13.73;82.10;102327.69;2088224;28;20548;-68
2022/07/18 03:14:02;;;;;;;4.50;2.35;;;;;;;13.73;81.43;102331.25;2088443;28;39117;-68
2022/07/18 03:15:05;;;;;;;4.25;2.25;;;;;;;13.73;81.37;102324.97;2088757;28;26263;-68
2022/07/18 03:16:09;;;;;;;3.97;2.67;;;;;;;13.72;81.95;102334.84;2088948;28;20038;-68
2022/07/18 03:17:11;;;;;;;3.20;2.17;;;;;;;13.72;81.54;102328.56;2088323;28;24223;-68
2022/07/18 03:18:13;;;;;;;5.40;2.42;;;;;;;13.69;81.54;102329.53;2088970;28;25359;-68
2022/07/18 03:19:16;;;;;;;5.20;2.38;;;;;;;13.72;81.61;102332.16;2086461;28;28354;-68
2022/07/18 03:20:17;;;;;;;4.75;2.78;;;;;;;13.71;81.50;102327.69;2080085;28;26843;-69
2022/07/18 03:21:20;;;;;;;4.25;2.40;;;;;;;13.71;81.53;102333.06;2087838;28;20068;-68
2022/07/18 03:22:21;;;;;;;3.53;2.13;;;;;;;13.71;81.81;102335.75;2088767;28;30104;-68
2022/07/18 03:23:23;;;;;;;3.60;2.65;;;;;;;13.74;81.62;102333.00;2088649;28;25435;-68
2022/07/18 03:24:25;;;;;;;6.78;2.72;;;;;;;13.73;81.12;102336.63;2089069;28;20085;-68
2022/07/18 03:25:27;;;;;;;5.03;2.33;;;;;;;13.73;81.46;102342.00;2089311;28;22487;-68
2022/07/18 03:26:30;;;;;;;4.63;2.28;;;;;;;13.74;81.52;102332.13;2089171;28;20076;-69
2022/07/18 03:27:32;;;;;;;4.47;2.70;;;;;;;13.75;81.44;102334.81;2088940;28;22239;-69
2022/07/18 03:28:34;;;;;;;6.18;2.95;;;;;;;13.78;81.38;102335.66;2088322;28;22331;-69
2022/07/18 03:29:36;;;;;;;4.68;2.60;;;;;;;13.78;81.12;102338.34;2088303;28;20075;-68
2022/07/18 03:30:37;;;;;;;3.92;2.60;;;;;;;13.78;81.16;102344.63;2088325;28;39028;-67
2022/07/18 03:31:39;;;;;;;4.60;2.60;;;;;;;13.81;81.26;102339.22;2088752;28;20038;-68
2022/07/18 03:32:41;;;;;;;3.88;2.58;;;;;;;13.82;80.99;102340.09;2088448;28;26165;-68
2022/07/18 03:33:43;;;;;;;4.53;2.72;;;;;;;13.82;80.74;102335.63;2087634;28;27663;-67
2022/07/18 03:34:47;;;;;;;6.65;2.97;;;;;;;13.84;81.23;102339.16;2088489;28;20034;-68
2022/07/18 03:35:49;;;;;;;6.50;2.78;;;;;;;13.83;81.00;102334.69;2096098;28;31037;-68
2022/07/18 03:36:50;;;;;;;7.18;3.10;;;;;;;13.87;80.68;102343.63;2096303;28;31014;-69
2022/07/18 03:37:52;;;;;;;3.92;2.67;;;;;;;13.85;80.75;102340.94;2088040;28;28084;-67
2022/07/18 03:38:54;;;;;;;6.35;3.00;;;;;;;13.87;80.72;102343.63;2087811;28;27552;-68
2022/07/18 03:39:56;;;;;;;4.90;3.28;;;;;;;13.89;80.66;102352.56;2088824;28;20088;-69
2022/07/18 03:41:00;;;;;;;4.65;2.53;;;;;;;13.87;80.25;102344.53;2088880;28;20844;-69
2022/07/18 03:42:02;;;;;;;5.50;2.90;;;;;;;13.87;80.58;102340.91;2088603;28;21033;-69
2022/07/18 03:43:04;;;;;;;6.13;2.88;;;;;;;13.89;80.32;102349.84;2087744;28;41576;-69
2022/07/18 03:44:06;;;;;;;3.95;2.85;;;;;;;13.93;80.80;102338.16;2088335;28;20154;-69
2022/07/18 03:45:09;;;;;;;4.63;2.38;;;;;;;13.93;80.26;102344.41;2087906;28;29283;-69
2022/07/18 03:46:10;;;;;;;6.20;3.00;;;;;;;13.94;79.96;102345.31;2088908;28;20172;-68
2022/07/18 03:47:14;;;;;;;4.68;2.90;;;;;;;13.95;80.13;102339.03;2089071;28;27150;-68
2022/07/18 03:48:16;;;;;;;4.13;2.78;;;;;;;13.96;79.80;102340.78;2087970;28;34412;-68
2022/07/18 03:49:18;;;;;;;8.45;2.88;;;;;;;13.99;79.85;102332.66;2087126;28;22576;-68
2022/07/18 03:50:20;;;;;;;6.63;2.78;;;;;;;14.00;79.74;102334.47;2087813;28;26793;-68
2022/07/18 03:51:25;;;;;;;3.60;2.70;;;;;;;14.03;79.84;102330.81;2087443;28;35146;-68
2022/07/18 03:52:29;;;;;;;3.67;3.00;;;;;;;14.04;79.75;102328.09;2087896;28;23502;-68
2022/07/18 03:53:32;;;;;;;4.20;2.90;;;;;;;14.07;79.48;102327.19;2088046;28;29154;-68
2022/07/18 03:54:34;;;;;;;3.50;2.67;;;;;;;14.09;79.61;102328.06;2088638;28;21142;-68
2022/07/18 03:55:35;;;;;;;3.70;2.08;;;;;;;14.11;79.43;102326.22;2088366;28;21215;-68
2022/07/18 03:56:38;;;;;;;3.90;2.95;;;;;;;14.13;79.22;102325.28;2087254;28;39211;-68
2022/07/18 03:57:40;;;;;;;3.53;2.60;;;;;;;14.16;79.35;102323.44;2079902;28;21509;-68
2022/07/18 03:58:42;;;;;;;3.97;2.35;;;;;;;14.22;79.20;102317.97;2088501;28;20103;-68
2022/07/18 03:59:44;;;;;;;3.30;2.10;;;;;;;14.31;78.91;102323.19;2088155;28;21580;-68
2022/07/18 04:00:46;;;;;;;5.40;2.67;;;;;;;14.41;78.57;102319.44;2088157;28;37962;-68
2022/07/18 04:01:51;;;;;;;2.85;2.40;;;;;;;14.56;78.35;102312.91;2088120;28;20046;-68
2022/07/18 04:02:54;;;;;;;5.20;2.75;;;;;;;14.75;77.04;102318.91;2088230;28;20126;-68
2022/07/18 04:03:56;;;;;;;3.42;2.40;;;;;;;14.95;76.33;102314.91;2087917;28;28105;-68
2022/07/18 04:04:57;;;;;;;5.10;2.53;;;;;;;15.15;75.99;102312.72;2088714;28;27148;-68
2022/07/18 04:06:00;;;;;;;3.97;2.47;;;;;;;15.27;74.61;102301.69;2088569;28;20934;-68
2022/07/18 04:07:03;;;;;;;4.32;2.90;;;;;;;15.33;74.13;102305.19;2087607;28;41453;-68
2022/07/18 04:08:05;;;;;;;3.47;2.42;;;;;;;15.39;74.00;102299.66;2088439;28;20042;-68
2022/07/18 04:09:07;;;;;;;4.18;2.75;;;;;;;15.36;73.35;102302.41;2089088;28;20866;-68
2022/07/18 04:10:10;;;;;;;3.65;2.33;;;;;;;15.35;73.83;102306.03;2088546;28;25550;-67
2022/07/18 04:11:12;;;;;;;5.32;2.92;;;;;;;15.29;72.92;102298.97;2086665;28;34298;-68
2022/07/18 04:12:18;;;;;;;4.72;2.60;;;;;;;15.28;73.39;102303.44;2088258;28;21193;-68
2022/07/18 04:13:20;;;;;;;4.68;2.80;;;;;;;15.26;73.88;102299.03;2088560;28;29077;-68
2022/07/18 04:14:24;;;;;;;6.22;2.75;;;;;;;15.28;73.77;102297.19;2088631;28;26626;-68
2022/07/18 04:15:27;;;;;;;4.93;2.95;;;;;;;15.23;73.84;102305.34;2087746;28;30217;-68
2022/07/18 04:16:28;;;;;;;3.80;3.00;;;;;;;15.19;73.65;102303.66;2088138;28;20061;-68
2022/07/18 04:17:30;;;;;;;4.78;2.75;;;;;;;15.25;73.56;102295.44;2087507;28;23746;-68
2022/07/18 04:18:32;;;;;;;5.95;2.95;;;;;;;15.30;73.59;102308.81;2088289;28;24278;-67
2022/07/18 04:19:39;;;;;;;4.70;2.92;;;;;;;15.45;72.85;102305.81;2088609;28;24652;-68
2022/07/18 04:20:41;;;;;;;4.43;2.67;;;;;;;15.74;72.54;102303.38;2087612;28;38163;-68
2022/07/18 04:21:43;;;;;;;3.20;2.20;;;;;;;16.06;71.82;102312.56;2088654;28;20298;-68
2022/07/18 04:22:58;;;;;;;4.55;2.58;;;;;;;16.46;69.17;102304.38;2088977;28;20156;-68
2022/07/18 04:24:00;;;;;;;6.65;2.60;;;;;;;16.87;68.62;102304.22;2088335;28;21082;-68
2022/07/18 04:25:05;;;;;;;5.68;2.17;;;;;;;17.23;67.13;102298.72;2079785;28;20271;-68
2022/07/18 04:26:07;;;;;;;5.32;1.90;;;;;;;17.62;66.16;102290.31;2071849;28;38174;-67
2022/07/18 04:27:09;;;;;;;2.67;1.88;;;;;;;17.86;63.66;102283.31;2088172;28;25251;-67
2022/07/18 04:28:13;;;;;;;7.05;2.00;;;;;;;18.06;63.39;102293.50;2095396;28;29449;-67
2022/07/18 04:29:17;;;;;;;2.63;1.70;;;;;;;18.15;62.41;102287.78;2079277;28;26514;-67
2022/07/18 04:30:23;;;;;;;5.88;2.10;;;;;;;18.25;62.54;102286.53;2079484;28;20029;-67
2022/07/18 04:31:27;;;;;;;3.58;2.25;;;;;;;18.45;61.15;102282.25;2088549;28;26042;-67
2022/07/18 04:32:29;;;;;;;3.45;2.40;;;;;;;18.87;61.00;102288.00;2088275;28;31401;-68
2022/07/18 04:33:31;;;;;;;3.13;2.05;;;;;;;19.23;60.01;102282.16;2088657;28;20297;-69
2022/07/18 04:34:33;;;;;;;4.43;2.20;;;;;;;19.54;59.08;102283.72;2088070;28;29218;-68
2022/07/18 04:35:39;;;;;;;3.60;2.17;;;;;;;19.85;57.63;102279.81;2088833;28;20034;-68
2022/07/18 04:36:40;;;;;;;5.47;2.08;;;;;;;19.81;56.83;102280.84;2087056;28;28861;-69
2022/07/18 04:37:45;;;;;;;5.05;2.05;;;;;;;19.67;57.79;102292.25;2088197;28;20793;-69
2022/07/18 04:38:46;;;;;;;3.05;1.30;;;;;;;19.69;57.94;102278.63;2088309;28;20211;-69
2022/07/18 04:39:48;;;;;;;3.05;1.77;;;;;;;19.80;57.41;102282.69;2088271;28;35388;-68
2022/07/18 04:40:51;;;;;;;4.15;2.00;;;;;;;20.04;56.92;102288.06;2087946;28;20119;-67
2022/07/18 04:41:52;;;;;;;5.15;1.50;;;;;;;20.08;56.64;102286.09;2088382;28;25678;-68
2022/07/18 04:42:54;;;;;;;5.03;1.90;;;;;;;20.18;55.71;102287.50;2088114;28;24637;-67
2022/07/18 04:43:56;;;;;;;1.83;1.50;;;;;;;20.43;55.46;102279.19;2088764;28;20038;-69
2022/07/18 04:44:58;;;;;;;3.35;1.90;;;;;;;20.52;53.47;102281.50;2087557;28;41747;-68
2022/07/18 04:46:00;;;;;;;4.25;1.90;;;;;;;20.77;53.67;102284.06;2088579;28;20123;-68
2022/07/18 04:47:04;;;;;;;4.40;1.80;;;;;;;21.04;52.77;102282.91;2088089;28;21048;-68
2022/07/18 04:48:06;;;;;;;3.83;1.58;;;;;;;21.30;52.58;102282.59;2088494;28;21755;-67
2022/07/18 04:49:10;;;;;;;4.32;1.80;;;;;;;20.94;52.91;102279.69;2087622;28;20038;-68
2022/07/18 04:50:12;;;;;;;4.15;2.13;;;;;;;20.70;53.64;102276.25;2088615;28;22136;-68
2022/07/18 04:51:16;;;;;;;3.45;1.38;;;;;;;20.57;52.93;102282.19;2087748;28;33168;-69
2022/07/18 04:52:18;;;;;;;2.63;1.70;;;;;;;20.49;54.14;102275.31;2087995;28;20045;-69
2022/07/18 04:53:20;;;;;;;2.63;1.60;;;;;;;20.09;54.06;102272.44;2087357;28;25258;-69
2022/07/18 04:54:22;;;;;;;2.97;1.95;;;;;;;19.51;55.06;102274.78;2089209;28;20327;-69